Time;durP1;ratioP1;P1;durP2;ratioP2;P2;SDS_P1;SDS_P2;PMS_P1;PMS_P2;Temp;Humidity;BMP_temperature;BMP_pressure;BME280_temperature;BME280_humidity;BME280_pressure;Samples;Min_cycle;Max_cycle;Signal;HPM_P1;HPM_P2
2022/07/19 00:02:16;;;;;;;2.95;1.80;;;;;;;24.97;47.30;101851.91;5085274;28;20027;-59
2022/07/19 00:04:41;;;;;;;2.63;1.80;;;;;;;24.97;47.25;101846.44;5084937;28;20091;-59
2022/07/19 00:07:06;;;;;;;3.35;2.05;;;;;;;24.96;47.20;101843.94;5084003;28;20378;-59
2022/07/19 00:09:32;;;;;;;5.03;2.17;;;;;;;24.76;47.25;101813.69;5084960;28;20048;-59
2022/07/19 00:11:57;;;;;;;3.72;2.30;;;;;;;24.96;47.08;101849.38;5084804;28;20477;-60
2022/07/19 00:14:23;;;;;;;5.13;2.45;;;;;;;24.95;47.34;101851.25;5083922;28;20046;-59
2022/07/19 00:16:48;;;;;;;2.88;1.70;;;;;;;24.94;47.17;101838.69;5083931;28;20028;-59
2022/07/19 00:19:14;;;;;;;2.67;1.90;;;;;;;24.84;47.27;101824.50;5085023;28;20029;-59
2022/07/19 00:21:39;;;;;;;2.67;1.67;;;;;;;24.89;47.25;101835.66;5066691;28;20021;-59
2022/07/19 00:24:05;;;;;;;3.30;2.03;;;;;;;24.94;47.22;101849.56;5085154;28;20036;-59
2022/07/19 00:26:30;;;;;;;4.03;2.00;;;;;;;24.93;47.26;101846.00;5083806;28;20039;-59
2022/07/19 00:28:56;;;;;;;3.38;2.38;;;;;;;24.93;47.28;101839.69;5084054;28;20036;-60
2022/07/19 00:31:22;;;;;;;3.88;2.17;;;;;;;24.93;47.22;101847.84;5083587;28;20032;-60
2022/07/19 00:33:48;;;;;;;3.05;2.22;;;;;;;24.73;47.22;101811.38;5087327;28;20074;-59
2022/07/19 00:36:13;;;;;;;3.53;2.35;;;;;;;24.72;47.38;101813.22;5088417;28;20021;-60
2022/07/19 00:38:38;;;;;;;2.67;2.10;;;;;;;24.89;47.18;101841.97;5071285;28;20028;-59
2022/07/19 00:41:04;;;;;;;2.92;2.15;;;;;;;24.90;47.12;101840.94;5088651;28;20028;-59
2022/07/19 00:43:30;;;;;;;3.53;2.00;;;;;;;24.72;47.13;101809.66;5088847;28;20032;-59
2022/07/19 00:45:55;;;;;;;3.33;2.20;;;;;;;24.85;47.31;101835.22;5087456;28;20029;-60
2022/07/19 00:48:21;;;;;;;2.50;1.83;;;;;;;24.71;47.28;101808.81;5087681;28;20099;-60
2022/07/19 00:50:46;;;;;;;2.55;1.95;;;;;;;24.68;47.17;101810.06;5086976;28;20074;-59
2022/07/19 00:53:14;;;;;;;3.13;2.17;;;;;;;24.88;47.10;101842.97;5084938;28;20029;-59
2022/07/19 00:55:41;;;;;;;3.67;2.22;;;;;;;24.87;46.77;101846.72;5050492;28;20021;-60
2022/07/19 00:58:08;;;;;;;4.82;2.10;;;;;;;24.87;47.07;101844.00;5068820;28;20021;-59
2022/07/19 01:00:34;;;;;;;2.60;1.70;;;;;;;24.86;47.07;101842.34;5050162;28;20027;-59
2022/07/19 01:03:00;;;;;;;7.15;2.20;;;;;;;24.88;47.00;101844.84;5073037;28;20036;-59
2022/07/19 01:05:25;;;;;;;2.90;2.10;;;;;;;24.83;46.82;101837.25;5084259;28;20024;-60
2022/07/19 01:07:51;;;;;;;4.22;2.00;;;;;;;24.85;46.90;101847.94;5073433;28;20030;-59
2022/07/19 01:10:16;;;;;;;2.58;1.67;;;;;;;24.85;46.70;101840.66;5080415;28;20020;-60
2022/07/19 01:12:42;;;;;;;4.90;2.65;;;;;;;24.84;47.00;101844.38;5054202;28;20074;-60
2022/07/19 01:15:28;;;;;;;2.45;2.08;;;;;;;24.86;46.77;101844.22;5067738;28;20025;-60
2022/07/19 01:17:53;;;;;;;3.97;2.33;;;;;;;24.66;46.98;101812.09;5087041;28;20032;-60
2022/07/19 01:20:20;;;;;;;3.20;2.17;;;;;;;24.84;46.83;101847.09;5086462;28;20453;-60
2022/07/19 01:22:46;;;;;;;3.92;1.98;;;;;;;24.82;46.90;101849.16;5086769;28;20048;-60
2022/07/19 01:25:12;;;;;;;3.55;2.45;;;;;;;24.83;46.89;101853.56;5074595;28;20017;-60
2022/07/19 01:27:41;;;;;;;2.83;2.13;;;;;;;24.82;46.96;101853.78;5066829;28;20031;-59
2022/07/19 01:30:15;;;;;;;2.35;2.00;;;;;;;24.82;46.85;101854.63;5049602;28;20367;-59
2022/07/19 01:32:41;;;;;;;3.20;2.13;;;;;;;24.81;46.83;101852.94;5066620;28;20020;-59
2022/07/19 01:35:07;;;;;;;3.95;1.98;;;;;;;24.72;46.89;101834.13;5066275;28;20032;-59
2022/07/19 01:37:33;;;;;;;3.85;2.10;;;;;;;24.80;46.82;101850.38;5066609;28;20493;-60
2022/07/19 01:39:58;;;;;;;2.55;1.83;;;;;;;24.79;46.71;101848.69;5067333;28;20037;-60
2022/07/19 01:42:24;;;;;;;2.80;2.00;;;;;;;24.77;46.69;101840.72;5081843;28;20044;-60
2022/07/19 01:44:50;;;;;;;2.47;1.77;;;;;;;24.55;46.82;101800.81;5085167;28;20017;-60
2022/07/19 01:47:15;;;;;;;4.78;2.30;;;;;;;24.78;46.68;101839.69;5086465;28;20066;-60
2022/07/19 01:49:40;;;;;;;3.55;2.17;;;;;;;24.57;46.49;101813.22;5087026;28;20477;-60
2022/07/19 01:52:05;;;;;;;2.33;2.00;;;;;;;24.56;46.68;101807.97;5087429;28;20024;-60
2022/07/19 01:54:31;;;;;;;2.78;2.03;;;;;;;24.75;46.60;101833.78;5086211;28;20042;-60
2022/07/19 01:56:56;;;;;;;5.05;2.53;;;;;;;24.74;46.57;101829.38;5086504;28;20381;-60
2022/07/19 01:59:21;;;;;;;3.00;2.08;;;;;;;24.75;46.65;101833.78;5087564;28;20119;-60
2022/07/19 02:01:46;;;;;;;3.33;2.10;;;;;;;24.75;46.60;101831.06;5087204;28;20084;-60
2022/07/19 02:04:12;;;;;;;3.65;1.98;;;;;;;24.75;46.59;101831.06;5087611;28;20024;-59
2022/07/19 02:06:37;;;;;;;3.33;1.80;;;;;;;24.73;46.67;101822.25;5085822;28;20110;-59
2022/07/19 02:09:02;;;;;;;3.58;2.50;;;;;;;24.55;46.69;101795.38;5086260;28;20766;-59
2022/07/19 02:11:35;;;;;;;3.17;2.20;;;;;;;24.74;46.53;101832.09;5085990;28;20063;-59
2022/07/19 02:14:00;;;;;;;3.67;2.33;;;;;;;24.53;46.53;101798.28;5086362;28;20050;-59
2022/07/19 02:16:25;;;;;;;3.50;2.20;;;;;;;24.72;46.52;101825.97;5072440;28;20036;-59
2022/07/19 02:18:51;;;;;;;2.47;2.00;;;;;;;24.72;46.52;101825.97;5067189;28;20090;-59
2022/07/19 02:21:17;;;;;;;3.10;2.30;;;;;;;24.68;46.48;101817.38;5065238;28;20021;-59
2022/07/19 02:23:42;;;;;;;2.25;1.77;;;;;;;24.70;46.26;101823.44;5066916;28;20025;-60
2022/07/19 02:26:08;;;;;;;2.83;1.80;;;;;;;24.48;46.43;101780.84;5066777;28;20135;-60
2022/07/19 02:28:33;;;;;;;2.47;1.98;;;;;;;24.49;46.52;101787.97;5066897;28;20047;-60
2022/07/19 02:30:58;;;;;;;2.83;2.25;;;;;;;24.69;46.30;101816.34;5065479;28;20032;-60
2022/07/19 02:33:23;;;;;;;2.45;1.83;;;;;;;24.68;46.42;101820.94;5066882;28;20031;-60
2022/07/19 02:35:49;;;;;;;2.63;2.20;;;;;;;24.66;46.61;101812.09;5065076;28;20044;-60
2022/07/19 02:38:14;;;;;;;2.88;2.05;;;;;;;24.67;46.49;101824.66;5066835;28;20101;-60
2022/07/19 02:40:39;;;;;;;4.63;2.10;;;;;;;24.65;46.38;101817.72;5066103;28;20116;-60
2022/07/19 02:43:04;;;;;;;3.53;2.45;;;;;;;24.67;46.48;101821.09;5066349;28;20031;-60
2022/07/19 02:45:29;;;;;;;3.03;2.10;;;;;;;24.66;46.52;101822.97;5066442;28;20036;-60
2022/07/19 02:47:55;;;;;;;2.70;2.28;;;;;;;24.46;46.45;101782.91;5066521;28;20044;-59
2022/07/19 02:50:20;;;;;;;3.00;2.45;;;;;;;24.43;46.61;101782.25;5066107;28;20080;-59
2022/07/19 02:52:45;;;;;;;5.18;2.22;;;;;;;24.64;46.41;101822.31;5066465;28;20381;-59
2022/07/19 02:55:10;;;;;;;3.58;2.30;;;;;;;24.64;46.24;101818.75;5064560;28;20039;-59
2022/07/19 02:57:36;;;;;;;3.42;2.60;;;;;;;24.43;46.31;101782.25;5066379;28;20024;-59
2022/07/19 03:00:04;;;;;;;3.85;2.35;;;;;;;24.41;46.30;101778.00;5048315;28;20033;-60
2022/07/19 03:02:29;;;;;;;3.38;2.35;;;;;;;24.63;46.30;101822.50;5066378;28;20028;-59
2022/07/19 03:04:54;;;;;;;2.45;2.08;;;;;;;24.62;46.29;101820.81;5064693;28;20028;-60
2022/07/19 03:07:19;;;;;;;3.10;2.20;;;;;;;24.61;46.18;101811.81;5066301;28;20025;-60
2022/07/19 03:09:45;;;;;;;3.05;2.35;;;;;;;24.61;46.27;101816.41;5065901;28;20410;-60
2022/07/19 03:12:11;;;;;;;3.95;2.28;;;;;;;24.61;46.17;101830.84;5064385;28;20029;-59
2022/07/19 03:14:36;;;;;;;2.92;2.03;;;;;;;24.42;46.19;101805.03;5064707;28;20025;-59
2022/07/19 03:17:01;;;;;;;4.55;2.92;;;;;;;24.40;46.20;101798.06;5084307;28;20029;-59
2022/07/19 03:19:27;;;;;;;3.17;2.63;;;;;;;24.38;46.41;101787.41;5085542;28;20477;-59
2022/07/19 03:21:53;;;;;;;4.68;2.40;;;;;;;24.57;46.19;101828.69;5085540;28;20040;-59
2022/07/19 03:24:18;;;;;;;3.65;2.70;;;;;;;24.58;46.30;101823.03;5068179;28;20021;-60
2022/07/19 03:26:44;;;;;;;4.07;2.30;;;;;;;24.56;46.10;101824.28;5085535;28;20020;-59
2022/07/19 03:29:09;;;;;;;3.70;2.53;;;;;;;24.57;46.03;101826.81;5084483;28;20024;-59
2022/07/19 03:31:34;;;;;;;2.90;2.60;;;;;;;24.49;45.93;101809.72;5085477;28;20017;-60
2022/07/19 03:33:59;;;;;;;4.45;2.63;;;;;;;24.56;45.94;101821.56;5085851;28;20024;-60
2022/07/19 03:36:25;;;;;;;4.03;2.20;;;;;;;24.54;46.05;101823.59;5085368;28;20082;-60
2022/07/19 03:38:50;;;;;;;4.18;2.80;;;;;;;24.54;46.09;101820.88;5085543;28;20020;-59
2022/07/19 03:41:15;;;;;;;4.03;2.78;;;;;;;24.54;46.03;101826.31;5085327;28;20033;-59
2022/07/19 03:43:41;;;;;;;3.80;2.60;;;;;;;24.53;46.03;101825.47;5085262;28;20032;-60
2022/07/19 03:46:06;;;;;;;3.35;2.78;;;;;;;24.37;45.95;101801.13;5085116;28;20035;-59
2022/07/19 03:48:31;;;;;;;4.05;2.67;;;;;;;24.52;45.87;101831.94;5084422;28;20523;-59
2022/07/19 03:50:57;;;;;;;7.18;3.20;;;;;;;24.50;46.05;101822.28;5084979;28;20025;-59
2022/07/19 03:53:23;;;;;;;5.22;2.40;;;;;;;24.51;46.04;101824.84;5084596;28;20465;-59
2022/07/19 03:55:48;;;;;;;4.63;2.58;;;;;;;24.49;46.07;101818.72;5085431;28;20020;-60
2022/07/19 03:58:13;;;;;;;3.78;2.90;;;;;;;24.50;45.97;101817.69;5085519;28;20099;-59
2022/07/19 04:00:39;;;;;;;4.03;2.80;;;;;;;24.48;45.83;101827.06;5083752;28;20024;-59
2022/07/19 04:03:04;;;;;;;3.83;2.97;;;;;;;24.48;45.91;101825.19;5084030;28;20020;-59
2022/07/19 04:05:29;;;;;;;4.55;2.92;;;;;;;24.48;45.84;101825.19;5083610;28;20035;-59
2022/07/19 04:07:55;;;;;;;3.22;2.50;;;;;;;24.48;45.83;101829.78;5084575;28;20031;-59
2022/07/19 04:10:20;;;;;;;2.97;2.58;;;;;;;24.47;45.77;101828.94;5084847;28;20050;-59
2022/07/19 04:12:45;;;;;;;3.83;2.60;;;;;;;24.28;45.74;101785.91;5066781;28;20024;-60
2022/07/19 04:15:11;;;;;;;3.90;2.95;;;;;;;24.28;45.69;101781.31;5063878;28;20108;-59
2022/07/19 04:17:36;;;;;;;3.80;2.75;;;;;;;24.47;46.12;101825.34;5063733;28;20116;-59
2022/07/19 04:20:02;;;;;;;3.65;2.90;;;;;;;24.46;45.95;101827.22;5063086;28;20033;-60
2022/07/19 04:22:28;;;;;;;5.10;2.63;;;;;;;24.45;45.91;101825.56;5063583;28;20489;-60
2022/07/19 04:24:53;;;;;;;3.70;2.30;;;;;;;24.45;46.01;101828.25;5063760;28;20040;-60
2022/07/19 04:27:18;;;;;;;4.00;2.72;;;;;;;24.44;45.78;101824.72;5065210;28;20017;-60
2022/07/19 04:29:43;;;;;;;3.40;2.65;;;;;;;24.44;46.01;101823.88;5064909;28;20504;-60
2022/07/19 04:32:09;;;;;;;3.42;2.65;;;;;;;24.44;45.95;101823.88;5064899;28;20028;-60
2022/07/19 04:34:34;;;;;;;3.35;2.63;;;;;;;24.22;46.12;101792.94;5064484;28;20021;-60
2022/07/19 04:36:59;;;;;;;4.28;2.55;;;;;;;24.44;45.92;101813.00;5064909;28;20032;-60
2022/07/19 04:39:24;;;;;;;5.38;2.55;;;;;;;24.43;45.65;101817.59;5063596;28;20032;-60
2022/07/19 04:41:50;;;;;;;3.72;2.30;;;;;;;24.43;45.97;101811.31;5062880;28;20067;-60
2022/07/19 04:44:15;;;;;;;3.20;2.47;;;;;;;24.10;45.89;101764.50;5065056;28;20092;-60
2022/07/19 04:46:40;;;;;;;4.00;3.20;;;;;;;24.41;46.21;101813.34;5064496;28;20380;-60
2022/07/19 04:49:06;;;;;;;4.88;3.35;;;;;;;24.41;46.08;101813.34;5064926;28;20036;-60
2022/07/19 04:51:31;;;;;;;2.85;2.55;;;;;;;24.40;45.84;101798.06;5064123;28;20025;-60
2022/07/19 04:53:56;;;;;;;3.70;2.97;;;;;;;24.41;45.99;101807.91;5064705;28;20555;-60
2022/07/19 04:56:21;;;;;;;3.33;2.30;;;;;;;24.40;46.00;101812.50;5064738;28;20039;-60
2022/07/19 04:58:47;;;;;;;5.43;2.50;;;;;;;24.40;45.98;101811.66;5064381;28;20071;-60
2022/07/19 05:01:12;;;;;;;5.22;3.15;;;;;;;24.38;45.93;101816.44;5063210;28;20032;-60
2022/07/19 05:03:37;;;;;;;3.88;2.33;;;;;;;24.20;45.96;101774.09;5062895;28;20082;-60
2022/07/19 05:06:02;;;;;;;3.78;2.60;;;;;;;24.17;46.00;101776.31;5061101;28;20033;-60
2022/07/19 05:08:28;;;;;;;4.05;2.92;;;;;;;24.39;46.14;101804.56;5043668;28;20029;-60
2022/07/19 05:10:53;;;;;;;4.15;2.53;;;;;;;24.39;46.36;101797.25;5059456;28;20048;-59
2022/07/19 05:13:18;;;;;;;4.75;2.58;;;;;;;24.37;46.26;101796.56;5044408;28;20049;-59
2022/07/19 05:15:43;;;;;;;3.45;2.38;;;;;;;24.20;46.37;101767.81;5075374;28;20062;-60
2022/07/19 05:18:09;;;;;;;3.40;2.63;;;;;;;24.39;46.28;101796.41;5085128;28;20096;-60
2022/07/19 05:20:34;;;;;;;3.92;2.85;;;;;;;24.17;46.51;101752.72;5086032;28;20021;-60
2022/07/19 05:22:59;;;;;;;3.17;2.70;;;;;;;24.20;46.46;101768.66;5087964;28;20080;-60
2022/07/19 05:25:25;;;;;;;4.50;2.55;;;;;;;24.19;46.44;101757.97;5086577;28;20020;-60
2022/07/19 05:27:50;;;;;;;3.05;2.60;;;;;;;24.39;46.39;101791.81;5086567;28;20016;-60
2022/07/19 05:30:15;;;;;;;4.13;2.70;;;;;;;24.40;46.47;101793.47;5087656;28;20048;-60
2022/07/19 05:32:41;;;;;;;7.43;2.92;;;;;;;24.41;46.50;101799.75;5087852;28;20535;-60
2022/07/19 05:35:06;;;;;;;3.95;2.55;;;;;;;24.42;46.57;101801.44;5086535;28;20029;-60
2022/07/19 05:37:32;;;;;;;4.88;2.35;;;;;;;24.20;46.49;101760.50;5086626;28;20036;-60
2022/07/19 05:39:57;;;;;;;3.58;2.72;;;;;;;24.42;46.68;101796.00;5086406;28;20043;-60
2022/07/19 05:42:22;;;;;;;4.45;2.30;;;;;;;24.42;46.61;101794.16;5087350;28;20029;-60
2022/07/19 05:44:47;;;;;;;3.38;2.58;;;;;;;24.43;46.81;101792.28;5087397;28;20498;-60
2022/07/19 05:47:13;;;;;;;9.40;3.05;;;;;;;24.43;46.49;101798.56;5087489;28;20059;-60
2022/07/19 05:49:38;;;;;;;3.40;2.47;;;;;;;24.44;46.67;101793.97;5087154;28;20123;-60
2022/07/19 05:52:04;;;;;;;3.97;2.88;;;;;;;24.44;46.80;101791.25;5087139;28;20026;-60
2022/07/19 05:54:29;;;;;;;3.10;2.35;;;;;;;24.24;46.81;101763.69;5087737;28;20557;-60
2022/07/19 05:56:54;;;;;;;3.25;2.05;;;;;;;24.46;46.71;101797.31;5087350;28;20111;-60
2022/07/19 05:59:21;;;;;;;4.03;2.67;;;;;;;24.46;46.80;101804.66;5087342;28;20025;-60
2022/07/19 06:01:48;;;;;;;3.88;2.75;;;;;;;24.46;46.92;101804.66;5085864;28;20074;-60
2022/07/19 06:04:13;;;;;;;4.38;3.03;;;;;;;24.46;46.93;101804.66;5087439;28;20027;-58
2022/07/19 06:06:39;;;;;;;3.33;2.55;;;;;;;24.26;47.08;101771.69;5086813;28;20021;-61
2022/07/19 06:09:04;;;;;;;2.78;2.47;;;;;;;24.45;46.85;101798.38;5086211;28;20027;-60
2022/07/19 06:11:30;;;;;;;3.20;2.80;;;;;;;24.47;46.78;101806.31;5087006;28;20095;-61
2022/07/19 06:13:55;;;;;;;4.32;2.65;;;;;;;24.25;46.67;101769.97;5085561;28;20131;-61
2022/07/19 06:16:21;;;;;;;3.80;2.25;;;;;;;24.28;46.69;101770.47;5073956;28;20102;-60
2022/07/19 06:18:46;;;;;;;3.10;2.50;;;;;;;24.49;46.66;101794.25;5066909;28;20040;-60
2022/07/19 06:21:14;;;;;;;6.22;2.80;;;;;;;24.49;46.74;101801.56;5065106;28;20028;-60
2022/07/19 06:23:40;;;;;;;4.18;2.58;;;;;;;24.49;46.56;101796.97;5065744;28;20086;-60
2022/07/19 06:26:06;;;;;;;3.60;2.78;;;;;;;24.50;46.61;101798.66;5048877;28;20549;-60
2022/07/19 06:28:31;;;;;;;2.85;2.20;;;;;;;24.33;46.34;101762.59;5065577;28;20025;-60
2022/07/19 06:30:57;;;;;;;3.30;2.53;;;;;;;24.50;46.52;101792.38;5065667;28;20107;-60
2022/07/19 06:33:22;;;;;;;4.97;2.78;;;;;;;24.32;46.56;101765.50;5066965;28;20021;-60
2022/07/19 06:35:47;;;;;;;6.60;2.80;;;;;;;24.47;46.44;101787.28;5065315;28;20397;-60
2022/07/19 06:38:13;;;;;;;3.70;2.58;;;;;;;24.52;46.41;101798.50;5065292;28;20135;-60
2022/07/19 06:40:38;;;;;;;4.05;2.70;;;;;;;24.34;46.38;101766.16;5066226;28;20024;-59
2022/07/19 06:43:04;;;;;;;2.70;2.42;;;;;;;24.53;46.33;101801.00;5065036;28;20082;-59
2022/07/19 06:45:29;;;;;;;3.00;2.30;;;;;;;24.30;46.27;101764.81;5065141;28;20025;-59
2022/07/19 06:47:54;;;;;;;3.75;2.85;;;;;;;24.46;46.27;101781.03;5066535;28;20053;-60
2022/07/19 06:50:20;;;;;;;3.53;2.42;;;;;;;24.36;46.08;101769.53;5066063;28;20043;-60
2022/07/19 06:52:46;;;;;;;3.45;3.03;;;;;;;24.39;46.08;101767.34;5048079;28;20032;-60
2022/07/19 06:55:11;;;;;;;3.47;2.40;;;;;;;24.34;45.91;101760.72;5065095;28;20025;-60
2022/07/19 06:57:36;;;;;;;4.18;2.83;;;;;;;24.35;46.25;101757.81;5064828;28;20031;-60
2022/07/19 07:00:03;;;;;;;4.18;2.63;;;;;;;24.57;46.06;101796.06;5064317;28;20470;-60
2022/07/19 07:02:29;;;;;;;3.55;2.30;;;;;;;24.36;46.01;101761.38;5064696;28;20042;-59
2022/07/19 07:04:54;;;;;;;4.40;2.65;;;;;;;24.56;45.96;101794.38;5064402;28;20048;-61
2022/07/19 07:07:19;;;;;;;4.60;3.00;;;;;;;24.33;46.09;101753.59;5064844;28;20025;-60
2022/07/19 07:09:45;;;;;;;4.70;2.00;;;;;;;24.60;45.77;101799.25;5065627;28;20052;-59
2022/07/19 07:12:10;;;;;;;3.00;2.10;;;;;;;24.62;45.75;101796.34;5065640;28;20053;-59
2022/07/19 07:14:35;;;;;;;4.10;2.72;;;;;;;24.55;46.06;101785.38;5064724;28;20036;-59
2022/07/19 07:17:01;;;;;;;3.40;2.35;;;;;;;24.61;45.71;101790.06;5083047;28;20044;-59
2022/07/19 07:19:26;;;;;;;5.28;2.53;;;;;;;24.62;45.82;101794.47;5085638;28;20020;-59
2022/07/19 07:21:51;;;;;;;3.42;2.38;;;;;;;24.62;45.92;101793.63;5084937;28;20036;-59
2022/07/19 07:24:17;;;;;;;5.00;2.45;;;;;;;24.62;45.92;101786.31;5085845;28;20034;-59
2022/07/19 07:26:42;;;;;;;2.78;2.33;;;;;;;24.61;46.01;101789.22;5085602;28;20032;-60
2022/07/19 07:29:07;;;;;;;3.65;2.25;;;;;;;24.66;45.98;101792.22;5085691;28;20028;-60
2022/07/19 07:31:32;;;;;;;3.42;2.13;;;;;;;24.63;45.81;101781.69;5084164;28;20540;-60
2022/07/19 07:33:58;;;;;;;4.57;2.30;;;;;;;24.66;45.59;101784.06;5084382;28;20111;-60
2022/07/19 07:36:23;;;;;;;4.07;2.35;;;;;;;24.55;45.74;101762.75;5084002;28;20032;-60
2022/07/19 07:38:48;;;;;;;3.67;2.28;;;;;;;24.67;45.75;101778.44;5085429;28;20029;-60
2022/07/19 07:41:14;;;;;;;3.05;2.35;;;;;;;24.67;45.84;101780.31;5085105;28;20533;-60
2022/07/19 07:43:39;;;;;;;4.00;2.03;;;;;;;24.67;45.90;101772.16;5085076;28;20056;-60
2022/07/19 07:46:04;;;;;;;2.85;2.10;;;;;;;24.70;46.18;101779.94;5083787;28;20044;-60
2022/07/19 07:48:30;;;;;;;3.97;2.10;;;;;;;24.69;46.16;101768.22;5085349;28;20082;-60
2022/07/19 07:50:55;;;;;;;3.70;2.30;;;;;;;24.68;46.38;101754.81;5084714;28;20024;-60
2022/07/19 07:53:21;;;;;;;3.22;2.28;;;;;;;24.36;46.46;101705.16;5085280;28;20028;-60
2022/07/19 07:55:46;;;;;;;2.78;2.10;;;;;;;24.72;46.44;101755.25;5067076;28;20056;-60
2022/07/19 07:58:12;;;;;;;3.88;2.22;;;;;;;24.72;46.42;101756.09;5084283;28;20032;-59
2022/07/19 08:00:39;;;;;;;3.35;2.25;;;;;;;24.73;46.43;101757.81;5083665;28;20055;-59
2022/07/19 08:03:05;;;;;;;3.90;2.28;;;;;;;24.74;46.42;101756.78;5084023;28;20078;-60
2022/07/19 08:05:31;;;;;;;2.95;2.05;;;;;;;24.75;46.46;101754.91;5084692;28;20028;-60
2022/07/19 08:07:57;;;;;;;3.63;2.08;;;;;;;24.74;46.37;101755.94;5085467;28;20024;-60
2022/07/19 08:10:24;;;;;;;3.92;1.92;;;;;;;24.57;46.52;101725.38;5083745;28;20491;-59
2022/07/19 08:12:50;;;;;;;3.75;2.25;;;;;;;24.76;46.92;101754.69;5084843;28;20028;-60
2022/07/19 08:15:15;;;;;;;2.80;1.70;;;;;;;24.78;46.59;101754.53;5063150;28;20028;-59
2022/07/19 08:17:40;;;;;;;3.20;2.00;;;;;;;24.79;46.32;101751.63;5065055;28;20385;-60
2022/07/19 08:20:06;;;;;;;4.15;1.88;;;;;;;24.81;46.43;101751.44;5064364;28;20036;-59
2022/07/19 08:22:31;;;;;;;2.95;2.10;;;;;;;24.77;46.30;101739.25;5064753;28;20051;-60
2022/07/19 08:24:57;;;;;;;2.95;2.08;;;;;;;24.82;46.37;101753.13;5065281;28;20021;-59
2022/07/19 08:27:22;;;;;;;3.70;2.10;;;;;;;24.79;46.52;101748.06;5064878;28;20478;-59
2022/07/19 08:29:47;;;;;;;2.38;2.08;;;;;;;24.68;46.54;101727.63;5064716;28;20033;-60
2022/07/19 08:32:13;;;;;;;3.72;2.00;;;;;;;24.86;46.70;101751.72;5063440;28;20025;-60
2022/07/19 08:34:38;;;;;;;3.90;2.20;;;;;;;24.68;46.54;101720.31;5046969;28;20485;-60
2022/07/19 08:37:03;;;;;;;2.75;1.92;;;;;;;24.88;46.44;101747.75;5064339;28;20025;-60
2022/07/19 08:39:29;;;;;;;2.88;2.08;;;;;;;24.89;46.57;101751.31;5063514;28;20064;-59
2022/07/19 08:41:54;;;;;;;2.58;2.03;;;;;;;24.91;46.27;101743.84;5064161;28;20048;-60
2022/07/19 08:44:20;;;;;;;2.47;2.08;;;;;;;24.92;46.20;101743.63;5064803;28;20059;-60
2022/07/19 08:46:46;;;;;;;4.28;2.30;;;;;;;24.89;46.21;101737.72;5064426;28;20045;-60
2022/07/19 08:49:11;;;;;;;3.38;2.25;;;;;;;24.93;46.42;101744.47;5063548;28;20033;-59
2022/07/19 08:51:37;;;;;;;3.47;1.90;;;;;;;24.93;46.18;101742.63;5062857;28;20206;-59
2022/07/19 08:54:03;;;;;;;3.65;1.98;;;;;;;24.94;46.22;101744.31;5066779;28;20542;-59
2022/07/19 08:59:13;;;;;;;3.17;1.88;;;;;;;24.96;46.24;101741.38;5068644;28;20523;-59
2022/07/19 09:01:38;;;;;;;2.90;1.90;;;;;;;24.97;46.15;101740.34;5050276;28;20021;-59
2022/07/19 09:04:17;;;;;;;3.88;2.38;;;;;;;24.98;46.04;101739.34;5067495;28;20032;-59
2022/07/19 09:06:45;;;;;;;2.15;1.70;;;;;;;24.99;45.92;101734.75;5066835;28;20051;-60
2022/07/19 09:09:13;;;;;;;3.47;2.13;;;;;;;25.00;46.09;101730.97;5067279;28;20078;-60
2022/07/19 09:11:50;;;;;;;3.63;2.15;;;;;;;25.01;45.97;101733.50;5066596;28;20023;-59
2022/07/19 09:14:24;;;;;;;3.05;2.33;;;;;;;25.02;45.91;101735.22;5067031;28;20025;-59
2022/07/19 09:16:50;;;;;;;2.88;2.08;;;;;;;25.03;45.88;101728.72;5084818;28;20027;-59
2022/07/19 09:19:15;;;;;;;4.40;2.00;;;;;;;24.85;45.74;101696.47;5088202;28;20024;-59
2022/07/19 09:21:58;;;;;;;2.45;1.90;;;;;;;25.05;45.86;101728.53;5087187;28;20028;-59
2022/07/19 09:24:24;;;;;;;3.25;1.80;;;;;;;25.04;45.81;101716.81;5086889;28;20063;-59
2022/07/19 09:26:58;;;;;;;3.38;2.10;;;;;;;24.88;45.69;101687.09;5087778;28;20031;-60
2022/07/19 09:29:23;;;;;;;3.00;1.40;;;;;;;25.00;45.89;101695.59;5086810;28;20020;-59
2022/07/19 09:32:05;;;;;;;3.30;2.08;;;;;;;24.89;45.74;101686.91;5087546;28;20036;-59
2022/07/19 09:34:54;;;;;;;2.80;1.83;;;;;;;25.10;45.99;101718.78;5086767;28;20519;-60
2022/07/19 09:37:21;;;;;;;3.67;2.17;;;;;;;25.11;45.91;101719.66;5087870;28;20039;-59
2022/07/19 09:39:49;;;;;;;2.63;1.70;;;;;;;25.12;45.77;101713.16;5087578;28;20024;-59
2022/07/19 09:42:36;;;;;;;2.05;1.55;;;;;;;25.13;45.78;101712.13;5086257;28;20485;-59
2022/07/19 09:45:04;;;;;;;2.80;1.70;;;;;;;25.13;45.88;101706.69;5087606;28;20048;-59
2022/07/19 09:47:34;;;;;;;2.55;1.55;;;;;;;25.13;45.79;101704.81;5087440;28;20036;-59
2022/07/19 09:50:01;;;;;;;2.70;1.80;;;;;;;25.15;45.75;101705.47;5086124;28;20085;-60
2022/07/19 09:52:26;;;;;;;3.00;1.77;;;;;;;25.15;45.78;101710.91;5087475;28;20075;-60
2022/07/19 09:54:52;;;;;;;3.42;1.75;;;;;;;25.15;45.81;101699.19;5086395;28;20054;-60
2022/07/19 09:57:22;;;;;;;2.78;1.95;;;;;;;25.16;45.82;101700.88;5087522;28;20029;-60
2022/07/19 09:59:51;;;;;;;3.03;1.75;;;;;;;25.16;45.76;101701.72;5069563;28;20483;-59
2022/07/19 10:02:19;;;;;;;3.35;1.80;;;;;;;25.16;45.83;101696.25;5087051;28;20024;-59
2022/07/19 10:04:44;;;;;;;2.70;1.95;;;;;;;25.17;45.76;101700.66;5085043;28;20054;-59
2022/07/19 10:07:11;;;;;;;2.70;1.70;;;;;;;25.17;45.81;101697.09;5085510;28;20084;-59
2022/07/19 10:09:37;;;;;;;4.40;2.17;;;;;;;25.17;45.81;101694.38;5086239;28;20070;-59
2022/07/19 10:12:02;;;;;;;3.53;2.00;;;;;;;25.18;45.84;101688.75;5085291;28;20588;-59
2022/07/19 10:14:27;;;;;;;2.40;1.60;;;;;;;25.19;45.85;101686.88;5069195;28;20029;-58
2022/07/19 10:17:21;;;;;;;2.80;1.80;;;;;;;25.18;45.76;101683.28;5086677;28;20025;-60
2022/07/19 10:19:48;;;;;;;2.97;1.90;;;;;;;25.18;45.62;101675.13;5085668;28;20016;-59
2022/07/19 10:22:17;;;;;;;2.72;1.70;;;;;;;25.20;45.56;101680.41;5085232;28;20115;-59
2022/07/19 10:24:45;;;;;;;2.20;1.60;;;;;;;25.20;45.81;101677.69;5085662;28;20032;-59
2022/07/19 10:27:12;;;;;;;2.50;1.90;;;;;;;25.21;45.73;101679.34;5086775;28;20024;-59
2022/07/19 10:29:37;;;;;;;1.83;1.40;;;;;;;25.21;45.57;101682.09;5086993;28;20066;-59
2022/07/19 10:32:08;;;;;;;3.10;1.90;;;;;;;25.03;45.72;101652.53;5085395;28;20021;-59
2022/07/19 10:34:33;;;;;;;2.80;1.65;;;;;;;25.22;45.79;101672.88;5085727;28;20020;-59
2022/07/19 10:36:58;;;;;;;2.60;1.73;;;;;;;25.22;45.84;101674.75;5085082;28;20031;-59
2022/07/19 10:39:30;;;;;;;2.25;1.60;;;;;;;25.00;46.01;101642.03;5085679;28;20031;-59
2022/07/19 10:42:19;;;;;;;2.25;1.60;;;;;;;25.24;45.75;101681.72;5086044;28;20051;-60
2022/07/19 10:44:54;;;;;;;2.42;1.40;;;;;;;25.24;45.62;101668.09;5085487;28;20430;-59
2022/07/19 10:47:20;;;;;;;2.33;1.50;;;;;;;25.24;45.70;101665.38;5086429;28;20040;-60
2022/07/19 10:49:47;;;;;;;3.35;1.60;;;;;;;25.21;46.00;101651.31;5085133;28;20048;-60
2022/07/19 10:52:28;;;;;;;2.87;1.87;;;;;;;25.27;45.97;101655.97;5084561;28;20020;-60
2022/07/19 10:55:15;;;;;;;1.75;1.50;;;;;;;25.28;45.89;101665.84;5086587;28;20028;-60
2022/07/19 10:57:41;;;;;;;3.28;1.50;;;;;;;25.26;45.80;101657.00;5086090;28;20020;-60
2022/07/19 11:00:26;;;;;;;2.03;1.20;;;;;;;25.29;45.65;101656.63;5084775;28;20048;-60
2022/07/19 11:03:20;;;;;;;2.25;1.52;;;;;;;25.29;45.93;101654.75;5067979;28;20028;-60
2022/07/19 11:05:50;;;;;;;1.88;1.42;;;;;;;25.29;45.83;101652.03;5085339;28;20056;-60
2022/07/19 11:08:15;;;;;;;1.75;1.23;;;;;;;25.08;46.00;101616.59;5086178;28;20028;-60
2022/07/19 11:10:41;;;;;;;1.70;1.42;;;;;;;25.31;45.91;101644.50;5084779;28;20046;-60
2022/07/19 11:13:07;;;;;;;3.75;1.55;;;;;;;25.30;45.92;101633.81;5067566;28;20087;-59
2022/07/19 11:15:32;;;;;;;1.88;1.30;;;;;;;25.16;45.96;101613.78;5078529;28;20029;-59
2022/07/19 11:18:00;;;;;;;2.65;1.88;;;;;;;25.13;45.88;101612.28;5064466;28;20054;-59
2022/07/19 11:20:31;;;;;;;2.07;1.50;;;;;;;25.33;45.84;101638.88;5065185;28;20051;-59
2022/07/19 11:22:57;;;;;;;1.92;1.55;;;;;;;25.12;45.89;101596.16;5047808;28;20331;-59
2022/07/19 11:25:25;;;;;;;2.25;1.50;;;;;;;25.36;45.91;101639.34;5065992;28;20029;-60